sensor_id;sensor_type;location;lat;lon;timestamp;pressure;altitude;pressure_sealevel;temperature;humidity
43621;BME280;29213;50.770;7.298;2023-05-02T00:00:44;101032.91;;;7.76;58.39
43621;BME280;29213;50.770;7.298;2023-05-02T00:03:10;101078.50;;;8.01;58.37
43621;BME280;29213;50.770;7.298;2023-05-02T00:05:36;101133.22;;;8.34;58.68
43621;BME280;29213;50.770;7.298;2023-05-02T00:08:01;100949.69;;;7.17;58.36
43621;BME280;29213;50.770;7.298;2023-05-02T00:10:27;101068.81;;;7.90;58.55
43621;BME280;29213;50.770;7.298;2023-05-02T00:12:52;101096.00;;;8.04;59.00
43621;BME280;29213;50.770;7.298;2023-05-02T00:15:17;101142.16;;;8.33;58.99
43621;BME280;29213;50.770;7.298;2023-05-02T00:17:43;101109.84;;;8.18;58.93
43621;BME280;29213;50.770;7.298;2023-05-02T00:20:09;101038.63;;;7.72;59.11
43621;BME280;29213;50.770;7.298;2023-05-02T00:22:36;101134.19;;;8.33;58.83
43621;BME280;29213;50.770;7.298;2023-05-02T00:25:01;101072.91;;;7.95;59.26
43621;BME280;29213;50.770;7.298;2023-05-02T00:27:28;101114.91;;;8.21;58.93
43621;BME280;29213;50.770;7.298;2023-05-02T00:29:54;101061.16;;;7.87;59.11
43621;BME280;29213;50.770;7.298;2023-05-02T00:32:19;101062.53;;;7.82;58.99
43621;BME280;29213;50.770;7.298;2023-05-02T00:34:45;101070.91;;;7.87;59.19
43621;BME280;29213;50.770;7.298;2023-05-02T00:37:10;101090.22;;;7.99;59.36
43621;BME280;29213;50.770;7.298;2023-05-02T00:39:37;101035.66;;;7.65;59.10
43621;BME280;29213;50.770;7.298;2023-05-02T00:42:02;101135.44;;;8.28;59.42
43621;BME280;29213;50.770;7.298;2023-05-02T00:44:28;101113.50;;;8.16;59.33
43621;BME280;29213;50.770;7.298;2023-05-02T00:46:55;101021.81;;;7.52;59.49
43621;BME280;29213;50.770;7.298;2023-05-02T00:49:20;101055.34;;;7.72;59.35
43621;BME280;29213;50.770;7.298;2023-05-02T00:51:46;101073.97;;;7.82;59.55
43621;BME280;29213;50.770;7.298;2023-05-02T00:54:12;100998.16;;;7.39;59.50
43621;BME280;29213;50.770;7.298;2023-05-02T00:56:38;101038.44;;;7.63;59.64
43621;BME280;29213;50.770;7.298;2023-05-02T00:59:05;101067.13;;;7.80;59.51
43621;BME280;29213;50.770;7.298;2023-05-02T01:02:01;101155.31;;;8.34;59.31
43621;BME280;29213;50.770;7.298;2023-05-02T01:07:53;101148.56;;;8.30;59.81
43621;BME280;29213;50.770;7.298;2023-05-02T01:10:41;101119.34;;;8.10;59.52
43621;BME280;29213;50.770;7.298;2023-05-02T01:13:21;101155.31;;;8.34;59.74
43621;BME280;29213;50.770;7.298;2023-05-02T01:15:50;101132.50;;;8.22;59.87
43621;BME280;29213;50.770;7.298;2023-05-02T01:18:20;101160.47;;;8.36;59.82
43621;BME280;29213;50.770;7.298;2023-05-02T01:20:50;101016.31;;;7.43;59.70
43621;BME280;29213;50.770;7.298;2023-05-02T01:23:45;101164.81;;;8.37;59.72
43621;BME280;29213;50.770;7.298;2023-05-02T01:29:16;101170.81;;;8.39;59.89
43621;BME280;29213;50.770;7.298;2023-05-02T01:31:46;101153.19;;;8.28;60.17
43621;BME280;29213;50.770;7.298;2023-05-02T01:34:12;101178.66;;;8.40;60.00
43621;BME280;29213;50.770;7.298;2023-05-02T01:36:41;101185.63;;;8.41;60.01
43621;BME280;29213;50.770;7.298;2023-05-02T01:39:16;101182.00;;;8.42;59.86
43621;BME280;29213;50.770;7.298;2023-05-02T01:41:44;101124.31;;;8.03;59.91
43621;BME280;29213;50.770;7.298;2023-05-02T01:44:11;101173.59;;;8.37;59.96
43621;BME280;29213;50.770;7.298;2023-05-02T01:46:40;101192.22;;;8.47;60.06
43621;BME280;29213;50.770;7.298;2023-05-02T01:49:08;101059.06;;;7.60;60.25
43621;BME280;29213;50.770;7.298;2023-05-02T01:51:36;101196.28;;;8.51;60.35
43621;BME280;29213;50.770;7.298;2023-05-02T01:54:07;101192.50;;;8.54;60.65
43621;BME280;29213;50.770;7.298;2023-05-02T01:56:35;101198.53;;;8.56;60.62
43621;BME280;29213;50.770;7.298;2023-05-02T01:59:04;101054.09;;;7.67;60.66
43621;BME280;29213;50.770;7.298;2023-05-02T02:01:31;101083.03;;;7.80;60.66
43621;BME280;29213;50.770;7.298;2023-05-02T02:03:59;101096.59;;;7.86;60.53
43621;BME280;29213;50.770;7.298;2023-05-02T02:06:24;101209.72;;;8.60;60.75
43621;BME280;29213;50.770;7.298;2023-05-02T02:08:51;101166.03;;;8.33;60.65
43621;BME280;29213;50.770;7.298;2023-05-02T02:11:23;101120.09;;;8.01;60.70
43621;BME280;29213;50.770;7.298;2023-05-02T02:13:56;101100.00;;;7.98;60.75
43621;BME280;29213;50.770;7.298;2023-05-02T02:16:29;101218.69;;;8.68;61.14
43621;BME280;29213;50.770;7.298;2023-05-02T02:18:54;101225.41;;;8.73;61.03
43621;BME280;29213;50.770;7.298;2023-05-02T02:21:21;101008.03;;;7.36;61.05
43621;BME280;29213;50.770;7.298;2023-05-02T02:23:48;101179.22;;;8.44;61.25
43621;BME280;29213;50.770;7.298;2023-05-02T02:26:17;101221.91;;;8.72;62.09
43621;BME280;29213;50.770;7.298;2023-05-02T02:28:43;101108.81;;;7.99;62.39
43621;BME280;29213;50.770;7.298;2023-05-02T02:31:08;101107.81;;;8.00;62.83
43621;BME280;29213;50.770;7.298;2023-05-02T02:33:34;101211.09;;;8.54;63.44
43621;BME280;29213;50.770;7.298;2023-05-02T02:36:15;101242.16;;;8.63;64.26
43621;BME280;29213;50.770;7.298;2023-05-02T02:39:08;101243.25;;;8.61;64.56
43621;BME280;29213;50.770;7.298;2023-05-02T02:42:32;101249.44;;;8.61;64.65
43621;BME280;29213;50.770;7.298;2023-05-02T02:44:52;101250.81;;;8.65;64.54
43621;BME280;29213;50.770;7.298;2023-05-02T02:47:31;101246.22;;;8.67;64.31
43621;BME280;29213;50.770;7.298;2023-05-02T02:52:49;101189.81;;;8.34;64.52
43621;BME280;29213;50.770;7.298;2023-05-02T02:55:23;101184.50;;;8.34;64.34
43621;BME280;29213;50.770;7.298;2023-05-02T03:01:02;101248.75;;;8.69;64.60
43621;BME280;29213;50.770;7.298;2023-05-02T03:03:31;101237.63;;;8.54;65.48
43621;BME280;29213;50.770;7.298;2023-05-02T03:05:58;101164.28;;;8.12;64.61
43621;BME280;29213;50.770;7.298;2023-05-02T03:08:24;101241.91;;;8.66;64.43
43621;BME280;29213;50.770;7.298;2023-05-02T03:10:50;101221.44;;;8.57;64.21
43621;BME280;29213;50.770;7.298;2023-05-02T03:13:15;101222.81;;;8.51;64.56
43621;BME280;29213;50.770;7.298;2023-05-02T03:18:16;101181.50;;;8.18;64.51
43621;BME280;29213;50.770;7.298;2023-05-02T03:20:41;101181.94;;;8.23;64.77
43621;BME280;29213;50.770;7.298;2023-05-02T03:23:07;101286.41;;;8.94;64.32
43621;BME280;29213;50.770;7.298;2023-05-02T03:25:34;100662.13;;;4.94;64.25
43621;BME280;29213;50.770;7.298;2023-05-02T03:28:06;100595.31;;;4.50;64.44
43621;BME280;29213;50.770;7.298;2023-05-02T03:30:38;100840.09;;;6.13;64.50
43621;BME280;29213;50.770;7.298;2023-05-02T03:33:08;100539.06;;;4.16;64.56
43621;BME280;29213;50.770;7.298;2023-05-02T03:35:49;101025.34;;;7.09;64.52
43621;BME280;29213;50.770;7.298;2023-05-02T03:38:17;100575.22;;;4.37;64.34
43621;BME280;29213;50.770;7.298;2023-05-02T03:40:48;100989.44;;;6.95;64.30
43621;BME280;29213;50.770;7.298;2023-05-02T03:43:14;100938.19;;;6.75;64.17
43621;BME280;29213;50.770;7.298;2023-05-02T03:45:52;100833.66;;;6.06;64.08
43621;BME280;29213;50.770;7.298;2023-05-02T03:48:17;100899.59;;;6.19;63.95
43621;BME280;29213;50.770;7.298;2023-05-02T03:50:49;100825.19;;;5.69;63.94
43621;BME280;29213;50.770;7.298;2023-05-02T03:53:15;100903.72;;;6.44;64.06
43621;BME280;29213;50.770;7.298;2023-05-02T03:55:44;100675.66;;;5.13;64.09
43621;BME280;29213;50.770;7.298;2023-05-02T03:58:10;101313.72;;;9.06;63.48
43621;BME280;29213;50.770;7.298;2023-05-02T04:00:44;100612.50;;;4.88;63.25
43621;BME280;29213;50.770;7.298;2023-05-02T04:03:13;101002.47;;;7.30;63.20
43621;BME280;29213;50.770;7.298;2023-05-02T04:05:41;100582.81;;;4.75;62.98
43621;BME280;29213;50.770;7.298;2023-05-02T04:08:32;100429.47;;;3.47;63.05
43621;BME280;29213;50.770;7.298;2023-05-02T04:11:03;100839.97;;;6.36;62.95
43621;BME280;29213;50.770;7.298;2023-05-02T04:13:29;100589.34;;;4.59;62.91
43621;BME280;29213;50.770;7.298;2023-05-02T04:15:57;100851.50;;;6.46;62.74
43621;BME280;29213;50.770;7.298;2023-05-02T04:18:23;100591.78;;;4.84;62.72
43621;BME280;29213;50.770;7.298;2023-05-02T04:20:49;100849.69;;;6.47;62.43
43621;BME280;29213;50.770;7.298;2023-05-02T04:23:15;100705.47;;;5.57;62.53
43621;BME280;29213;50.770;7.298;2023-05-02T04:25:50;101022.09;;;7.58;62.31
43621;BME280;29213;50.770;7.298;2023-05-02T04:28:17;101007.47;;;7.33;62.36
43621;BME280;29213;50.770;7.298;2023-05-02T04:30:42;101064.84;;;7.75;62.46
43621;BME280;29213;50.770;7.298;2023-05-02T04:33:17;100874.84;;;6.62;62.20
43621;BME280;29213;50.770;7.298;2023-05-02T04:35:51;100876.97;;;6.68;62.30
43621;BME280;29213;50.770;7.298;2023-05-02T04:38:17;101081.28;;;7.90;62.29
43621;BME280;29213;50.770;7.298;2023-05-02T04:40:46;100593.63;;;4.93;62.02
43621;BME280;29213;50.770;7.298;2023-05-02T04:43:21;101093.00;;;7.97;62.09
43621;BME280;29213;50.770;7.298;2023-05-02T04:45:47;100893.69;;;6.69;61.96
43621;BME280;29213;50.770;7.298;2023-05-02T04:48:21;101129.84;;;8.22;61.89
43621;BME280;29213;50.770;7.298;2023-05-02T04:50:48;100676.69;;;5.21;61.52
43621;BME280;29213;50.770;7.298;2023-05-02T04:53:24;101109.16;;;8.15;61.80
43621;BME280;29213;50.770;7.298;2023-05-02T04:55:52;100681.88;;;5.44;61.52
43621;BME280;29213;50.770;7.298;2023-05-02T04:58:17;100919.75;;;6.95;61.56
43621;BME280;29213;50.770;7.298;2023-05-02T05:00:49;100500.41;;;4.38;61.45
43621;BME280;29213;50.770;7.298;2023-05-02T05:03:15;100917.22;;;6.93;61.55
43621;BME280;29213;50.770;7.298;2023-05-02T05:05:40;101007.03;;;7.28;61.61
43621;BME280;29213;50.770;7.298;2023-05-02T05:08:06;100951.00;;;7.01;61.38
43621;BME280;29213;50.770;7.298;2023-05-02T05:10:32;101025.56;;;7.49;62.17
43621;BME280;29213;50.770;7.298;2023-05-02T05:12:58;100824.44;;;6.00;62.01
43621;BME280;29213;50.770;7.298;2023-05-02T05:15:31;100890.16;;;6.59;62.17
43621;BME280;29213;50.770;7.298;2023-05-02T05:18:04;100473.22;;;3.94;62.04
43621;BME280;29213;50.770;7.298;2023-05-02T05:20:33;100921.19;;;6.56;62.11
43621;BME280;29213;50.770;7.298;2023-05-02T05:22:59;100946.88;;;6.87;62.35
43621;BME280;29213;50.770;7.298;2023-05-02T05:25:34;100964.31;;;6.90;62.41
43621;BME280;29213;50.770;7.298;2023-05-02T05:28:05;101076.84;;;7.69;62.45
43621;BME280;29213;50.770;7.298;2023-05-02T05:30:42;100642.22;;;5.02;62.36
43621;BME280;29213;50.770;7.298;2023-05-02T05:33:10;101101.44;;;7.81;62.36
43621;BME280;29213;50.770;7.298;2023-05-02T05:35:38;100960.44;;;6.94;62.40
43621;BME280;29213;50.770;7.298;2023-05-02T05:38:06;100944.69;;;6.92;62.33
43621;BME280;29213;50.770;7.298;2023-05-02T05:40:35;100971.41;;;7.11;62.34
43621;BME280;29213;50.770;7.298;2023-05-02T05:43:04;100715.56;;;5.52;62.11
43621;BME280;29213;50.770;7.298;2023-05-02T05:45:30;100702.31;;;5.42;62.43
43621;BME280;29213;50.770;7.298;2023-05-02T05:48:01;100711.25;;;5.30;62.11
43621;BME280;29213;50.770;7.298;2023-05-02T05:50:33;101180.88;;;8.35;62.19
43621;BME280;29213;50.770;7.298;2023-05-02T05:52:58;100731.72;;;5.38;61.84
43621;BME280;29213;50.770;7.298;2023-05-02T05:55:30;100694.66;;;5.28;62.16
43621;BME280;29213;50.770;7.298;2023-05-02T05:58:05;100700.78;;;5.28;62.27
43621;BME280;29213;50.770;7.298;2023-05-02T06:00:43;100950.97;;;6.70;62.44
43621;BME280;29213;50.770;7.298;2023-05-02T06:03:16;101041.41;;;7.18;62.38
43621;BME280;29213;50.770;7.298;2023-05-02T06:05:41;101326.19;;;9.15;62.53
43621;BME280;29213;50.770;7.298;2023-05-02T06:08:07;101366.78;;;9.37;62.25
43621;BME280;29213;50.770;7.298;2023-05-02T06:10:33;101460.84;;;9.97;62.34
43621;BME280;29213;50.770;7.298;2023-05-02T06:12:58;101396.25;;;9.55;62.26
43621;BME280;29213;50.770;7.298;2023-05-02T06:15:24;101467.16;;;9.96;62.33
43621;BME280;29213;50.770;7.298;2023-05-02T06:17:50;101465.34;;;9.96;62.30
43621;BME280;29213;50.770;7.298;2023-05-02T06:20:16;101360.91;;;9.33;62.48
43621;BME280;29213;50.770;7.298;2023-05-02T06:22:41;101441.09;;;9.80;62.44
43621;BME280;29213;50.770;7.298;2023-05-02T06:25:07;101289.31;;;8.81;62.35
43621;BME280;29213;50.770;7.298;2023-05-02T06:27:33;101422.31;;;9.61;62.55
43621;BME280;29213;50.770;7.298;2023-05-02T06:29:59;101475.00;;;9.87;62.95
43621;BME280;29213;50.770;7.298;2023-05-02T06:32:24;101470.66;;;9.86;62.93
43621;BME280;29213;50.770;7.298;2023-05-02T06:34:50;101479.09;;;9.92;63.13
43621;BME280;29213;50.770;7.298;2023-05-02T06:37:16;101480.63;;;9.94;63.22
43621;BME280;29213;50.770;7.298;2023-05-02T06:39:41;101483.28;;;9.94;63.52
43621;BME280;29213;50.770;7.298;2023-05-02T06:42:06;101421.59;;;9.49;63.38
43621;BME280;29213;50.770;7.298;2023-05-02T06:44:32;101422.16;;;9.53;63.38
43621;BME280;29213;50.770;7.298;2023-05-02T06:46:57;101401.50;;;9.35;64.04
43621;BME280;29213;50.770;7.298;2023-05-02T06:49:22;101469.38;;;9.81;63.93
43621;BME280;29213;50.770;7.298;2023-05-02T06:51:48;101505.41;;;10.05;63.75
43621;BME280;29213;50.770;7.298;2023-05-02T06:54:15;101440.22;;;9.59;63.86
43621;BME280;29213;50.770;7.298;2023-05-02T06:56:41;101440.50;;;9.66;63.89
43621;BME280;29213;50.770;7.298;2023-05-02T06:59:06;101493.22;;;10.02;63.85
43621;BME280;29213;50.770;7.298;2023-05-02T07:01:32;101421.47;;;9.61;64.42
43621;BME280;29213;50.770;7.298;2023-05-02T07:03:57;101523.47;;;10.11;64.26
43621;BME280;29213;50.770;7.298;2023-05-02T07:06:23;101509.59;;;9.97;64.11
43621;BME280;29213;50.770;7.298;2023-05-02T07:08:48;101462.38;;;9.70;64.21
43621;BME280;29213;50.770;7.298;2023-05-02T07:11:14;101455.91;;;9.62;63.97
43621;BME280;29213;50.770;7.298;2023-05-02T07:13:39;101526.75;;;10.14;63.91
43621;BME280;29213;50.770;7.298;2023-05-02T07:16:05;101422.28;;;9.52;64.35
43621;BME280;29213;50.770;7.298;2023-05-02T07:18:31;101440.22;;;9.59;63.84
43621;BME280;29213;50.770;7.298;2023-05-02T07:20:56;101509.78;;;10.06;64.00
43621;BME280;29213;50.770;7.298;2023-05-02T07:23:22;101511.72;;;10.03;63.86
43621;BME280;29213;50.770;7.298;2023-05-02T07:25:47;101534.97;;;10.11;64.40
43621;BME280;29213;50.770;7.298;2023-05-02T07:28:13;101492.88;;;9.75;64.55
43621;BME280;29213;50.770;7.298;2023-05-02T07:30:38;101520.06;;;9.79;64.66
43621;BME280;29213;50.770;7.298;2023-05-02T07:33:03;101411.53;;;9.22;64.30
43621;BME280;29213;50.770;7.298;2023-05-02T07:35:29;101518.56;;;9.96;64.07
43621;BME280;29213;50.770;7.298;2023-05-02T07:37:55;101507.06;;;9.86;64.03
43621;BME280;29213;50.770;7.298;2023-05-02T07:40:21;101428.66;;;9.39;64.10
43621;BME280;29213;50.770;7.298;2023-05-02T07:42:47;101549.81;;;10.04;64.60
43621;BME280;29213;50.770;7.298;2023-05-02T07:45:12;101448.09;;;9.40;64.19
43621;BME280;29213;50.770;7.298;2023-05-02T07:47:37;101542.09;;;10.01;64.11
43621;BME280;29213;50.770;7.298;2023-05-02T07:50:03;101464.84;;;9.61;64.47
43621;BME280;29213;50.770;7.298;2023-05-02T07:52:29;101564.56;;;10.08;64.75
43621;BME280;29213;50.770;7.298;2023-05-02T07:54:55;101565.50;;;10.07;65.15
43621;BME280;29213;50.770;7.298;2023-05-02T07:57:21;101503.06;;;9.60;65.38
43621;BME280;29213;50.770;7.298;2023-05-02T07:59:46;101548.94;;;9.84;65.15
43621;BME280;29213;50.770;7.298;2023-05-02T08:02:12;101535.00;;;9.70;65.32
43621;BME280;29213;50.770;7.298;2023-05-02T08:04:38;101575.56;;;9.94;66.25
43621;BME280;29213;50.770;7.298;2023-05-02T08:07:03;101502.13;;;9.40;66.55
43621;BME280;29213;50.770;7.298;2023-05-02T08:09:29;101526.16;;;9.60;65.86
43621;BME280;29213;50.770;7.298;2023-05-02T08:11:55;101533.75;;;9.65;66.01
43621;BME280;29213;50.770;7.298;2023-05-02T08:14:20;101461.38;;;9.30;65.71
43621;BME280;29213;50.770;7.298;2023-05-02T08:16:46;101562.25;;;9.94;65.64
43621;BME280;29213;50.770;7.298;2023-05-02T08:19:11;101509.94;;;9.63;65.65
43621;BME280;29213;50.770;7.298;2023-05-02T08:21:37;101510.94;;;9.72;65.62
43621;BME280;29213;50.770;7.298;2023-05-02T08:24:02;101500.44;;;9.70;65.43
43621;BME280;29213;50.770;7.298;2023-05-02T08:26:28;101488.47;;;9.55;64.87
43621;BME280;29213;50.770;7.298;2023-05-02T08:28:53;101483.22;;;9.43;64.92
43621;BME280;29213;50.770;7.298;2023-05-02T08:31:20;101577.38;;;9.93;65.02
43621;BME280;29213;50.770;7.298;2023-05-02T08:33:46;101557.88;;;9.83;65.15
43621;BME280;29213;50.770;7.298;2023-05-02T08:36:13;101583.31;;;10.07;64.65
43621;BME280;29213;50.770;7.298;2023-05-02T08:38:39;101609.94;;;10.16;64.83
43621;BME280;29213;50.770;7.298;2023-05-02T08:41:12;101605.19;;;10.30;64.63
43621;BME280;29213;50.770;7.298;2023-05-02T08:43:38;101493.19;;;9.72;64.22
43621;BME280;29213;50.770;7.298;2023-05-02T08:46:05;101608.78;;;10.50;63.84
43621;BME280;29213;50.770;7.298;2023-05-02T08:48:39;101512.69;;;10.02;63.08
43621;BME280;29213;50.770;7.298;2023-05-02T08:51:13;101614.66;;;10.64;63.60
43621;BME280;29213;50.770;7.298;2023-05-02T08:53:39;101614.09;;;10.70;61.95
43621;BME280;29213;50.770;7.298;2023-05-02T08:56:06;101626.16;;;10.74;61.67
43621;BME280;29213;50.770;7.298;2023-05-02T08:58:32;101627.16;;;10.73;60.30
43621;BME280;29213;50.770;7.298;2023-05-02T09:01:00;101618.31;;;10.73;59.62
43621;BME280;29213;50.770;7.298;2023-05-02T09:03:31;101640.31;;;10.65;59.46
43621;BME280;29213;50.770;7.298;2023-05-02T09:06:06;101643.28;;;10.72;59.67
43621;BME280;29213;50.770;7.298;2023-05-02T09:08:33;101553.22;;;10.26;59.05
43621;BME280;29213;50.770;7.298;2023-05-02T09:11:01;101579.56;;;10.39;58.58
43621;BME280;29213;50.770;7.298;2023-05-02T09:13:31;101547.59;;;10.09;57.97
43621;BME280;29213;50.770;7.298;2023-05-02T09:15:59;101632.03;;;10.58;58.08
43621;BME280;29213;50.770;7.298;2023-05-02T09:18:29;101590.78;;;10.33;57.54
43621;BME280;29213;50.770;7.298;2023-05-02T09:20:57;101494.00;;;9.73;57.00
43621;BME280;29213;50.770;7.298;2023-05-02T09:23:37;101667.59;;;10.78;57.37
43621;BME280;29213;50.770;7.298;2023-05-02T09:28:42;101670.38;;;10.87;56.37
43621;BME280;29213;50.770;7.298;2023-05-02T09:31:10;101660.44;;;10.99;56.70
43621;BME280;29213;50.770;7.298;2023-05-02T09:33:36;101657.34;;;11.03;56.23
43621;BME280;29213;50.770;7.298;2023-05-02T09:36:02;101514.25;;;10.25;55.98
43621;BME280;29213;50.770;7.298;2023-05-02T09:38:28;101577.94;;;10.57;54.92
43621;BME280;29213;50.770;7.298;2023-05-02T09:40:54;101673.59;;;11.20;55.24
43621;BME280;29213;50.770;7.298;2023-05-02T09:43:22;101672.63;;;11.21;54.98
43621;BME280;29213;50.770;7.298;2023-05-02T09:48:23;101641.91;;;10.97;55.31
43621;BME280;29213;50.770;7.298;2023-05-02T09:50:48;101591.66;;;10.63;54.90
43621;BME280;29213;50.770;7.298;2023-05-02T09:53:14;101502.19;;;10.11;55.19
43621;BME280;29213;50.770;7.298;2023-05-02T09:55:39;101651.47;;;10.90;53.70
43621;BME280;29213;50.770;7.298;2023-05-02T09:58:05;101561.91;;;10.28;54.39
43621;BME280;29213;50.770;7.298;2023-05-02T10:00:41;101677.38;;;10.98;53.05
43621;BME280;29213;50.770;7.298;2023-05-02T10:03:08;101627.97;;;10.54;53.06
43621;BME280;29213;50.770;7.298;2023-05-02T10:05:38;101656.34;;;10.75;54.02
43621;BME280;29213;50.770;7.298;2023-05-02T10:08:05;101691.00;;;10.94;53.83
43621;BME280;29213;50.770;7.298;2023-05-02T10:10:32;101631.03;;;10.49;54.24
43621;BME280;29213;50.770;7.298;2023-05-02T10:13:02;101596.09;;;10.33;53.92
43621;BME280;29213;50.770;7.298;2023-05-02T10:15:29;101607.63;;;10.43;54.29
43621;BME280;29213;50.770;7.298;2023-05-02T10:17:57;101702.78;;;10.92;53.93
43621;BME280;29213;50.770;7.298;2023-05-02T10:20:35;101593.22;;;10.05;54.79
43621;BME280;29213;50.770;7.298;2023-05-02T10:23:02;101704.44;;;10.73;55.14
43621;BME280;29213;50.770;7.298;2023-05-02T10:25:28;101645.44;;;10.37;55.23
43621;BME280;29213;50.770;7.298;2023-05-02T10:27:56;101678.59;;;10.64;55.10
43621;BME280;29213;50.770;7.298;2023-05-02T10:30:24;101697.50;;;10.61;55.06
43621;BME280;29213;50.770;7.298;2023-05-02T10:32:50;101638.38;;;10.16;54.87
43621;BME280;29213;50.770;7.298;2023-05-02T10:35:18;101698.78;;;10.66;55.10
43621;BME280;29213;50.770;7.298;2023-05-02T10:37:44;101728.03;;;10.88;54.83
43621;BME280;29213;50.770;7.298;2023-05-02T10:40:11;101711.44;;;10.74;54.45
43621;BME280;29213;50.770;7.298;2023-05-02T10:42:39;101739.81;;;10.85;53.77
43621;BME280;29213;50.770;7.298;2023-05-02T10:45:11;101701.59;;;10.65;53.61
43621;BME280;29213;50.770;7.298;2023-05-02T10:47:37;101729.44;;;10.82;53.54
43621;BME280;29213;50.770;7.298;2023-05-02T10:50:02;101674.91;;;10.45;53.31
43621;BME280;29213;50.770;7.298;2023-05-02T10:52:29;101727.72;;;10.81;53.33
43621;BME280;29213;50.770;7.298;2023-05-02T10:55:21;101724.69;;;10.95;53.22
43621;BME280;29213;50.770;7.298;2023-05-02T11:00:24;101739.84;;;11.05;52.13
43621;BME280;29213;50.770;7.298;2023-05-02T11:02:49;101730.03;;;11.15;51.91
43621;BME280;29213;50.770;7.298;2023-05-02T11:05:15;101636.66;;;10.66;51.72
43621;BME280;29213;50.770;7.298;2023-05-02T11:07:41;101706.44;;;11.10;51.70
43621;BME280;29213;50.770;7.298;2023-05-02T11:12:45;101710.09;;;11.39;51.20
43621;BME280;29213;50.770;7.298;2023-05-02T11:15:14;101549.31;;;10.60;50.71
43621;BME280;29213;50.770;7.298;2023-05-02T11:18:06;101734.75;;;11.71;50.25
43621;BME280;29213;50.770;7.298;2023-05-02T11:20:35;101682.41;;;11.50;50.29
43621;BME280;29213;50.770;7.298;2023-05-02T11:25:44;101731.94;;;11.72;48.89
43621;BME280;29213;50.770;7.298;2023-05-02T11:31:06;101657.31;;;11.13;49.04
43621;BME280;29213;50.770;7.298;2023-05-02T11:33:32;101710.78;;;11.51;48.89
43621;BME280;29213;50.770;7.298;2023-05-02T11:35:57;101729.69;;;11.77;48.50
43621;BME280;29213;50.770;7.298;2023-05-02T11:38:24;101725.31;;;11.96;49.09
43621;BME280;29213;50.770;7.298;2023-05-02T11:40:57;101737.25;;;12.02;48.00
43621;BME280;29213;50.770;7.298;2023-05-02T11:43:26;101726.94;;;12.17;48.65
43621;BME280;29213;50.770;7.298;2023-05-02T11:45:53;101629.28;;;11.76;47.99
43621;BME280;29213;50.770;7.298;2023-05-02T11:48:21;101645.09;;;11.98;46.55
43621;BME280;29213;50.770;7.298;2023-05-02T11:50:48;101656.66;;;12.16;46.55
43621;BME280;29213;50.770;7.298;2023-05-02T11:53:23;101729.31;;;12.76;46.59
43621;BME280;29213;50.770;7.298;2023-05-02T11:55:51;101707.91;;;12.76;45.18
43621;BME280;29213;50.770;7.298;2023-05-02T11:58:18;101661.25;;;12.52;45.54
43621;BME280;29213;50.770;7.298;2023-05-02T12:00:45;101714.97;;;12.77;44.59
43621;BME280;29213;50.770;7.298;2023-05-02T12:03:28;101729.53;;;12.83;45.08
43621;BME280;29213;50.770;7.298;2023-05-02T12:05:54;101714.38;;;12.83;44.91
43621;BME280;29213;50.770;7.298;2023-05-02T12:08:27;101731.44;;;13.19;45.03
43621;BME280;29213;50.770;7.298;2023-05-02T12:10:55;101671.44;;;13.03;44.66
43621;BME280;29213;50.770;7.298;2023-05-02T12:13:23;101738.06;;;13.51;44.14
43621;BME280;29213;50.770;7.298;2023-05-02T12:15:50;101734.16;;;13.45;43.45
43621;BME280;29213;50.770;7.298;2023-05-02T12:18:16;101736.78;;;13.37;42.71
43621;BME280;29213;50.770;7.298;2023-05-02T12:20:42;101699.16;;;13.02;42.92
43621;BME280;29213;50.770;7.298;2023-05-02T12:23:08;101717.03;;;13.02;42.98
43621;BME280;29213;50.770;7.298;2023-05-02T12:25:39;101697.84;;;12.88;42.43
43621;BME280;29213;50.770;7.298;2023-05-02T12:28:04;101680.66;;;12.91;43.07
43621;BME280;29213;50.770;7.298;2023-05-02T12:30:30;101746.91;;;13.52;43.88
43621;BME280;29213;50.770;7.298;2023-05-02T12:32:58;101704.00;;;13.17;44.26
43621;BME280;29213;50.770;7.298;2023-05-02T12:35:26;101751.75;;;13.48;44.82
43621;BME280;29213;50.770;7.298;2023-05-02T12:37:52;101676.72;;;12.95;44.90
43621;BME280;29213;50.770;7.298;2023-05-02T12:40:19;101682.50;;;12.90;44.72
43621;BME280;29213;50.770;7.298;2023-05-02T12:43:01;101657.81;;;12.60;45.15
43621;BME280;29213;50.770;7.298;2023-05-02T12:45:30;101627.72;;;12.40;45.07
43621;BME280;29213;50.770;7.298;2023-05-02T12:50:46;101772.09;;;13.22;45.26
43621;BME280;29213;50.770;7.298;2023-05-02T12:53:12;101696.31;;;12.86;44.85
43621;BME280;29213;50.770;7.298;2023-05-02T12:55:37;101697.38;;;12.93;45.02
43621;BME280;29213;50.770;7.298;2023-05-02T12:58:06;101767.41;;;13.43;44.38
43621;BME280;29213;50.770;7.298;2023-05-02T13:00:38;101767.75;;;13.40;44.33
43621;BME280;29213;50.770;7.298;2023-05-02T13:03:04;101748.47;;;13.18;43.60
43621;BME280;29213;50.770;7.298;2023-05-02T13:05:30;101768.19;;;13.35;44.11
43621;BME280;29213;50.770;7.298;2023-05-02T13:07:56;101656.38;;;12.66;45.44
43621;BME280;29213;50.770;7.298;2023-05-02T13:10:22;101664.69;;;12.99;45.20
43621;BME280;29213;50.770;7.298;2023-05-02T13:12:49;101750.31;;;13.80;43.77
43621;BME280;29213;50.770;7.298;2023-05-02T13:15:14;101665.53;;;13.36;40.87
43621;BME280;29213;50.770;7.298;2023-05-02T13:17:40;101732.72;;;13.77;41.06
43621;BME280;29213;50.770;7.298;2023-05-02T13:20:06;101766.72;;;14.38;39.36
43621;BME280;29213;50.770;7.298;2023-05-02T13:22:32;101768.91;;;14.35;38.09
43621;BME280;29213;50.770;7.298;2023-05-02T13:24:58;101683.53;;;13.79;41.56
43621;BME280;29213;50.770;7.298;2023-05-02T13:27:24;101674.94;;;14.01;40.11
43621;BME280;29213;50.770;7.298;2023-05-02T13:29:50;101770.69;;;14.61;39.80
43621;BME280;29213;50.770;7.298;2023-05-02T13:32:15;101709.66;;;14.46;40.51
43621;BME280;29213;50.770;7.298;2023-05-02T13:34:41;101759.03;;;14.87;39.87